Pride Of Burgundy — MQSQ9 — position and weather

sailwx.info

Track history (hours):
 
Tides and Currents Weather Stations Pressure Air Temp Water Temp Dewpoint Dewpoint Depression Visibility Wind Speed Wind Dir Waves Ship Positions

Pride Of Burgundy

Operator: P & O Ferries

Last reported at 2017-Sep-20 00:30 UTC. Time now 2017-Sep-20 00:35 UTC.
Position N 50°58' E 001°51'.

Length 180 m; draft 6.2 m.

Type: Passenger vessel. MMSI: 232001470.

Date/timePositionNaut miles runAvg speedWind from/ knotsBaromVisibWave heightAir tempDewpointWater temp
2017-Sep-20 00:30N 50°58' E 001°51'0 0.0
2017-Sep-20 00:01N 50°58' E 001°51'0 0.0
2017-Sep-19 23:31N 50°58' E 001°51'0 0.0
2017-Sep-19 23:01N 50°58' E 001°51'0 0.0
2017-Sep-19 22:31N 50°58' E 001°51'0 0.0
2017-Sep-19 22:01N 50°58' E 001°51'0 0.0
2017-Sep-19 21:31N 50°58' E 001°51'0 0.0
2017-Sep-19 21:00N 50°58' E 001°51'0 0.0
2017-Sep-19 20:31N 50°58' E 001°51'2 4.6
2017-Sep-19 20:01N 50°58' E 001°47'816.7
2017-Sep-19 19:31N 51°01' E 001°35'917.9
2017-Sep-19 19:01N 51°06' E 001°23'2 4.7
2017-Sep-19 18:29N 51°07' E 001°20'0 0.0
2017-Sep-19 18:00N 51°07' E 001°20'3 7.0
2017-Sep-19 17:30N 51°06' E 001°25'918.6
2017-Sep-19 17:01N 51°01' E 001°38'917.2
2017-Sep-19 16:30N 50°58' E 001°51'0 0.6
2017-Sep-19 16:01N 50°58' E 001°51'0 0.1
2017-Sep-19 15:30N 50°58' E 001°51'713.9
2017-Sep-19 15:00N 50°59' E 001°40'918.5
2017-Sep-19 14:30N 51°04' E 001°27'611.3
2017-Sep-19 14:00N 51°07' E 001°20'0 0.0
2017-Sep-19 13:30N 51°07' E 001°20'0 0.7
2017-Sep-19 13:00N 51°07' E 001°20'612.5
2017-Sep-19 12:31N 51°04' E 001°29'917.0
2017-Sep-19 12:00N 50°60' E 001°41'712.8
2017-Sep-19 11:30N 50°58' E 001°51'0 0.2
2017-Sep-19 11:00N 50°58' E 001°51'0 0.2
2017-Sep-19 10:30N 50°58' E 001°51'917.7
2017-Sep-19 10:00N 50°60' E 001°37'918.4
2017-Sep-19 09:30N 51°05' E 001°25'4 7.8
2017-Sep-19 08:59N 51°07' E 001°20'0 0.0
2017-Sep-19 08:30N 51°07' E 001°20'0 0.8
2017-Sep-19 08:00N 51°07' E 001°21'816.9
2017-Sep-19 07:31N 51°03' E 001°32'918.0
2017-Sep-19 07:01N 50°58' E 001°44'4 8.5
2017-Sep-19 06:31N 50°58' E 001°51'0 0.0
2017-Sep-19 06:00N 50°58' E 001°51'2 3.2
2017-Sep-19 05:30N 50°58' E 001°48'815.4
2017-Sep-19 05:00N 51°00' E 001°37'816.5
2017-Sep-19 04:30N 51°05' E 001°26'4 8.7
2017-Sep-19 04:00N 51°07' E 001°20'0 0.0
2017-Sep-19 03:30N 51°07' E 001°20'0 0.3
2017-Sep-19 03:00N 51°07' E 001°20'816.1
2017-Sep-19 02:30N 51°03' E 001°31'816.6
2017-Sep-19 02:00N 50°59' E 001°43'510.8
2017-Sep-19 01:30N 50°58' E 001°51'0 0.0
2017-Sep-19 01:00N 50°58' E 001°51'0 0.0
2017-Sep-19 00:30N 50°58' E 001°51'0 0.0
2017-Sep-19 00:01N 50°58' E 001°51'0 0.0
2017-Sep-18 23:30N 50°58' E 001°51'0 0.0
2017-Sep-18 23:00N 50°58' E 001°51'0 0.0
2017-Sep-18 22:30N 50°58' E 001°51'0 0.0
2017-Sep-18 22:00N 50°58' E 001°51'0 0.0
2017-Sep-18 21:30N 50°58' E 001°51'0 0.0
2017-Sep-18 21:00N 50°58' E 001°51'0 0.0
2017-Sep-18 20:31N 50°58' E 001°51'0 0.0
2017-Sep-18 20:00N 50°58' E 001°51'4 7.3
2017-Sep-18 19:30N 50°58' E 001°45'917.1
2017-Sep-18 19:00N 51°01' E 001°33'917.9
2017-Sep-18 18:30N 51°07' E 001°22'1 2.1
2017-Sep-18 18:00N 51°07' E 001°20'0 0.2
2017-Sep-18 17:30N 51°07' E 001°20'815.7
2017-Sep-18 17:01N 51°04' E 001°32'817.0
2017-Sep-18 16:31N 50°59' E 001°43'510.8
2017-Sep-18 16:00N 50°58' E 001°51'0 0.0
2017-Sep-18 15:30N 50°58' E 001°51'510.2
2017-Sep-18 15:00N 50°58' E 001°43'917.9
2017-Sep-18 14:30N 51°02' E 001°30'816.1
2017-Sep-18 14:00N 51°07' E 001°20'0 0.5
2017-Sep-18 13:30N 51°07' E 001°20'0 0.2
2017-Sep-18 13:01N 51°07' E 001°20'714.0
2017-Sep-18 12:31N 51°04' E 001°30'816.9
2017-Sep-18 12:01N 50°59' E 001°41'713.1
2017-Sep-18 11:31N 50°58' E 001°51'0 0.4
2017-Sep-18 11:00N 50°58' E 001°52'0 0.0
2017-Sep-18 10:30N 50°58' E 001°52'815.0
2017-Sep-18 10:00N 50°59' E 001°40'918.6
2017-Sep-18 09:30N 51°05' E 001°28'611.1
2017-Sep-18 09:00N 51°07' E 001°20'0 0.0
2017-Sep-18 08:30N 51°07' E 001°20'2 4.6
2017-Sep-18 08:01N 51°07' E 001°24'816.8
2017-Sep-18 07:30N 51°02' E 001°35'816.6
2017-Sep-18 07:01N 50°58' E 001°46'3 6.9
2017-Sep-18 06:30N 50°58' E 001°52'0 0.0
2017-Sep-18 06:01N 50°58' E 001°52'0 0.0
2017-Sep-18 05:31N 50°58' E 001°52'0 0.0
2017-Sep-18 05:01N 50°58' E 001°52'0 0.0
2017-Sep-18 04:30N 50°58' E 001°52'0 0.0
2017-Sep-18 04:00N 50°58' E 001°52'0 0.0
2017-Sep-18 03:30N 50°58' E 001°52'0 0.0
2017-Sep-18 03:00N 50°58' E 001°52'0 0.0
2017-Sep-18 02:30N 50°58' E 001°52'0 0.0
2017-Sep-18 02:01N 50°58' E 001°52'0 0.0
2017-Sep-18 01:30N 50°58' E 001°52'0 0.0
2017-Sep-18 01:00N 50°58' E 001°52'0 0.0
2017-Sep-18 00:30N 50°58' E 001°52'0 0.0
2017-Sep-18 00:00N 50°58' E 001°52'0 0.0
2017-Sep-17 23:30N 50°58' E 001°52'0 0.0
2017-Sep-17 23:00N 50°58' E 001°52'0 0.0
2017-Sep-17 22:30N 50°58' E 001°52'0 0.0
2017-Sep-17 22:00N 50°58' E 001°52'0 0.0
2017-Sep-17 21:30N 50°58' E 001°52'0 0.0
2017-Sep-17 21:00N 50°58' E 001°52'0 0.0
2017-Sep-17 20:30N 50°58' E 001°52'0 0.0
2017-Sep-17 20:00N 50°58' E 001°52'0 0.2
2017-Sep-17 19:30N 50°58' E 001°51'815.4
2017-Sep-17 19:01N 50°59' E 001°39'918.6
2017-Sep-17 18:31N 51°04' E 001°27'611.2
2017-Sep-17 18:00N 51°07' E 001°20'0 0.0
2017-Sep-17 17:30N 51°07' E 001°20'4 8.7
2017-Sep-17 17:01N 51°05' E 001°26'917.1
2017-Sep-17 16:31N 51°01' E 001°38'816.5
2017-Sep-17 16:00N 50°58' E 001°50'1 1.2
2017-Sep-17 15:31N 50°58' E 001°51'0 0.0
2017-Sep-17 15:01N 50°58' E 001°51'714.1
2017-Sep-17 14:31N 50°58' E 001°40'918.4
2017-Sep-17 14:01N 51°04' E 001°29'612.0
2017-Sep-17 13:29N 51°07' E 001°20'0 0.0
2017-Sep-17 12:59N 51°07' E 001°20'613.2
2017-Sep-17 12:30N 51°06' E 001°30'917.9
2017-Sep-17 12:00N 51°00' E 001°41'713.4
2017-Sep-17 11:31N 50°58' E 001°51'0 0.2
2017-Sep-17 11:01N 50°58' E 001°51'0 0.9
2017-Sep-17 10:31N 50°58' E 001°50'918.9
2017-Sep-17 10:00N 50°58' E 001°35'816.7
2017-Sep-17 09:31N 51°04' E 001°26'5 9.7
2017-Sep-17 09:00N 51°07' E 001°20'0 0.0
2017-Sep-17 08:30N 51°07' E 001°20'3 6.9
2017-Sep-17 08:00N 51°07' E 001°25'917.3
2017-Sep-17 07:30N 51°01' E 001°36'815.8
2017-Sep-17 07:01N 50°58' E 001°48'2 4.3
2017-Sep-17 06:30N 50°58' E 001°51'0 0.0
2017-Sep-17 06:01N 50°58' E 001°51'0 0.0
2017-Sep-17 05:30N 50°58' E 001°51'0 0.0
2017-Sep-17 05:00N 50°58' E 001°51'0 0.0
2017-Sep-17 04:30N 50°58' E 001°51'0 0.0
2017-Sep-17 04:00N 50°58' E 001°51'0 0.0
2017-Sep-17 03:31N 50°58' E 001°51'0 0.0
2017-Sep-17 03:00N 50°58' E 001°51'0 0.0
2017-Sep-17 02:30N 50°58' E 001°51'0 0.0
2017-Sep-17 02:01N 50°58' E 001°51'0 0.0
2017-Sep-17 01:31N 50°58' E 001°51'0 0.0
2017-Sep-17 01:00N 50°58' E 001°51'0 0.0
2017-Sep-17 00:31N 50°58' E 001°51'4 7.2
2017-Sep-17 00:00N 50°58' E 001°46'918.4
2017-Sep-16 23:30N 51°02' E 001°32'918.2
2017-Sep-16 23:00N 51°07' E 001°21'0 0.9
2017-Sep-16 22:30N 51°07' E 001°20'2 4.9
2017-Sep-16 22:01N 51°07' E 001°24'917.0
2017-Sep-16 21:30N 51°03' E 001°35'816.6
2017-Sep-16 21:00N 50°58' E 001°47'3 5.5
2017-Sep-16 20:30N 50°58' E 001°51'0 0.0
2017-Sep-16 20:00N 50°58' E 001°51'2 3.0
2017-Sep-16 19:31N 50°58' E 001°49'918.8
2017-Sep-16 19:01N 51°01' E 001°34'918.6
2017-Sep-16 18:31N 51°06' E 001°22'2 3.2
2017-Sep-16 18:00N 51°07' E 001°20'0 0.7
2017-Sep-16 17:30N 51°07' E 001°21'816.0
2017-Sep-16 17:01N 51°03' E 001°32'918.5
2017-Sep-16 16:30N 50°58' E 001°44'4 8.8
2017-Sep-16 16:00N 50°58' E 001°51'0 0.0
2017-Sep-16 15:30N 50°58' E 001°51'510.4
2017-Sep-16 15:00N 50°58' E 001°43'917.6
2017-Sep-16 14:30N 51°02' E 001°30'816.1
2017-Sep-16 14:00N 51°07' E 001°20'0 0.7
2017-Sep-16 13:30N 51°07' E 001°20'0 0.2
2017-Sep-16 13:00N 51°07' E 001°20'816.5
2017-Sep-16 12:30N 51°05' E 001°33'917.9
2017-Sep-16 12:00N 50°59' E 001°44'5 9.5
2017-Sep-16 11:30N 50°58' E 001°51'0 0.0
2017-Sep-16 11:00N 50°58' E 001°51'2 4.9
2017-Sep-16 10:30N 50°58' E 001°47'918.1
2017-Sep-16 10:00N 51°02' E 001°34'918.1
2017-Sep-16 09:30N 51°07' E 001°22'1 2.3
2017-Sep-16 09:00N 51°07' E 001°20'0 0.1
2017-Sep-16 08:30N 51°07' E 001°20'611.7
2017-Sep-16 08:00N 51°05' E 001°29'917.7
2017-Sep-16 07:30N 51°00' E 001°40'713.8
2017-Sep-16 07:01N 50°58' E 001°51'0 0.4
2017-Sep-16 06:30N 50°58' E 001°51'0 0.5
2017-Sep-16 06:00N 50°58' E 001°51'713.6
2017-Sep-16 05:30N 50°58' E 001°40'714.7
2017-Sep-16 05:00N 51°01' E 001°29'815.5
2017-Sep-16 04:31N 51°07' E 001°21'1 1.9
2017-Sep-16 04:00N 51°07' E 001°20'0 0.0
2017-Sep-16 03:31N 51°07' E 001°20'1 2.0
2017-Sep-16 03:00N 51°07' E 001°22'714.6
2017-Sep-16 02:31N 51°04' E 001°32'815.9
2017-Sep-16 02:00N 50°59' E 001°42'611.2
2017-Sep-16 01:31N 50°58' E 001°51'0 0.0
2017-Sep-16 01:00N 50°58' E 001°51'0 0.0
2017-Sep-16 00:30N 50°58' E 001°51'0 0.0
2017-Sep-16 00:01N 50°58' E 001°51'0 0.0
2017-Sep-15 23:31N 50°58' E 001°51'0 0.0
2017-Sep-15 23:01N 50°58' E 001°51'0 0.0
2017-Sep-15 22:31N 50°58' E 001°51'0 0.0
2017-Sep-15 22:00N 50°58' E 001°51'0 0.0
2017-Sep-15 21:30N 50°58' E 001°51'0 0.0
2017-Sep-15 21:01N 50°58' E 001°51'2 3.5
2017-Sep-15 20:30N 50°58' E 001°48'815.3
2017-Sep-15 20:00N 51°01' E 001°37'714.4
2017-Sep-15 19:30N 51°05' E 001°28'510.8
2017-Sep-15 19:01N 51°07' E 001°20'0 0.0
2017-Sep-15 18:30N 51°07' E 001°20'3 6.8
2017-Sep-15 18:00N 51°07' E 001°25'815.2
2017-Sep-15 17:31N 51°03' E 001°36'815.5
2017-Sep-15 17:00N 50°58' E 001°45'4 7.1
2017-Sep-15 16:30N 50°58' E 001°51'0 0.1
2017-Sep-15 16:00N 50°58' E 001°51'713.7
2017-Sep-15 15:31N 50°58' E 001°40'815.1
2017-Sep-15 15:01N 51°03' E 001°30'815.2
2017-Sep-15 14:30N 51°07' E 001°21'0 0.7
2017-Sep-15 14:00N 51°07' E 001°20'2 3.2
2017-Sep-15 13:30N 51°07' E 001°23'815.8
2017-Sep-15 13:01N 51°04' E 001°34'815.5
2017-Sep-15 12:31N 50°59' E 001°43'510.1
2017-Sep-15 12:00N 50°58' E 001°51'0 0.0
2017-Sep-15 11:30N 50°58' E 001°51'3 6.1
2017-Sep-15 11:00N 50°58' E 001°46'815.4
2017-Sep-15 10:30N 51°01' E 001°35'816.2
2017-Sep-15 10:00N 51°05' E 001°24'3 6.5
2017-Sep-15 09:30N 51°07' E 001°20'0 0.2
2017-Sep-15 08:59N 51°07' E 001°20'612.2
2017-Sep-15 08:30N 51°05' E 001°29'815.2
2017-Sep-15 08:00N 51°01' E 001°39'713.5
2017-Sep-15 07:30N 50°58' E 001°49'1 2.8
2017-Sep-15 07:00N 50°58' E 001°51'0 0.0
2017-Sep-15 06:30N 50°58' E 001°51'612.0
2017-Sep-15 06:01N 50°59' E 001°41'816.3
2017-Sep-15 05:31N 51°03' E 001°30'815.4
2017-Sep-15 05:00N 51°07' E 001°20'0 0.5
2017-Sep-15 04:30N 51°07' E 001°20'0 0.3
2017-Sep-15 04:00N 51°07' E 001°20'713.5
2017-Sep-15 03:31N 51°06' E 001°30'714.8
2017-Sep-15 03:01N 51°01' E 001°39'714.3
2017-Sep-15 02:31N 50°58' E 001°50'1 2.2
2017-Sep-15 02:00N 50°58' E 001°52'0 0.0
2017-Sep-15 01:30N 50°58' E 001°52'0 0.0
2017-Sep-15 01:00N 50°58' E 001°52'0 0.0
2017-Sep-15 00:30N 50°58' E 001°52'0 0.0
2017-Sep-15 00:00N 50°58' E 001°52'0 0.0
2017-Sep-14 23:30N 50°58' E 001°52'0 0.0
2017-Sep-14 23:00N 50°58' E 001°52'0 0.0
2017-Sep-14 22:30N 50°58' E 001°52'0 0.0
2017-Sep-14 22:00N 50°58' E 001°52'0 0.8
2017-Sep-14 21:30N 50°58' E 001°51'5 9.6
2017-Sep-14 21:00N 50°58' E 001°43'815.9
2017-Sep-14 20:30N 51°02' E 001°33'612.4
2017-Sep-14 20:01N 51°06' E 001°24'3 6.3
2017-Sep-14 19:30N 51°07' E 001°20'0 0.0
2017-Sep-14 19:00N 51°07' E 001°20'1 1.6
2017-Sep-14 18:30N 51°07' E 001°21'714.5
2017-Sep-14 18:00N 51°04' E 001°32'714.5
2017-Sep-14 17:30N 50°60' E 001°41'612.4
2017-Sep-14 17:01N 50°58' E 001°51'0 0.7
2017-Sep-14 16:31N 50°58' E 001°51'0 0.2
2017-Sep-14 16:01N 50°58' E 001°51'714.4
2017-Sep-14 15:30N 50°59' E 001°39'815.7
2017-Sep-14 15:00N 51°03' E 001°29'714.2
2017-Sep-14 14:30N 51°07' E 001°20'0 0.0
2017-Sep-14 14:00N 51°07' E 001°20'1 2.0
2017-Sep-14 13:30N 51°07' E 001°22'815.3
2017-Sep-14 13:00N 51°03' E 001°32'815.1
2017-Sep-14 12:31N 50°59' E 001°42'611.1
2017-Sep-14 12:01N 50°58' E 001°51'0 0.2
2017-Sep-14 11:30N 50°58' E 001°51'0 0.4
2017-Sep-14 11:01N 50°58' E 001°51'713.2
2017-Sep-14 10:30N 50°59' E 001°40'815.8
2017-Sep-14 10:00N 51°03' E 001°29'714.4
2017-Sep-14 09:30N 51°07' E 001°20'0 0.6
2017-Sep-14 09:00N 51°07' E 001°20'0 0.3
2017-Sep-14 08:30N 51°07' E 001°20'611.5
2017-Sep-14 08:01N 51°05' E 001°28'714.7
2017-Sep-14 07:31N 51°01' E 001°38'713.4
2017-Sep-14 07:00N 50°58' E 001°48'2 3.9
2017-Sep-14 06:30N 50°58' E 001°51'0 0.0
2017-Sep-14 06:00N 50°58' E 001°51'5 9.8
2017-Sep-14 05:30N 50°58' E 001°43'816.4
2017-Sep-14 05:00N 51°02' E 001°32'9 7.3
2017-Sep-14 03:46N 51°07' E 001°20'0 0.0
2017-Sep-14 03:30N 51°07' E 001°20'2 4.0
2017-Sep-14 03:00N 51°07' E 001°23'714.9
2017-Sep-14 02:30N 51°03' E 001°33'816.5
2017-Sep-14 02:00N 50°58' E 001°44'4 8.6
2017-Sep-14 01:30N 50°58' E 001°51'0 0.0
2017-Sep-14 01:00N 50°58' E 001°51'0 0.0
2017-Sep-14 00:30N 50°58' E 001°51'0 0.0
2017-Sep-14 00:00N 50°58' E 001°51'0 0.0
2017-Sep-13 23:31N 50°58' E 001°51'0 0.0
2017-Sep-13 23:00N 50°58' E 001°51'0 0.0
2017-Sep-13 22:30N 50°58' E 001°51'0 0.0
2017-Sep-13 22:00N 50°58' E 001°51'3 5.0
2017-Sep-13 21:31N 50°58' E 001°47'816.3
2017-Sep-13 21:00N 51°02' E 001°35'918.3
2017-Sep-13 20:31N 51°06' E 001°23'2 4.2
2017-Sep-13 20:00N 51°07' E 001°20'0 0.0
2017-Sep-13 19:30N 51°07' E 001°20'0 0.6
2017-Sep-13 19:00N 51°07' E 001°21'815.7
2017-Sep-13 18:31N 51°04' E 001°32'816.4
2017-Sep-13 18:00N 50°59' E 001°42'611.7
2017-Sep-13 17:30N 50°58' E 001°51'0 0.0
2017-Sep-13 17:01N 50°58' E 001°51'0 0.0
2017-Sep-13 16:31N 50°58' E 001°51'815.9
2017-Sep-13 16:00N 50°60' E 001°39'917.8
2017-Sep-13 15:30N 51°05' E 001°27'5 9.0
2017-Sep-13 14:57N 51°07' E 001°20'0 0.0
2017-Sep-13 14:31N 51°07' E 001°20'0 0.0
2017-Sep-13 14:00N 51°07' E 001°20'5 9.9
2017-Sep-13 13:30N 51°06' E 001°28'917.1
2017-Sep-13 13:00N 51°01' E 001°38'815.9
2017-Sep-13 12:30N 50°58' E 001°50'1 1.2
2017-Sep-13 12:00N 50°58' E 001°51'0 0.0
2017-Sep-13 11:30N 50°58' E 001°51'510.4
2017-Sep-13 11:00N 50°58' E 001°43'918.1
2017-Sep-13 10:31N 51°03' E 001°31'814.1
2017-Sep-13 09:57N 51°07' E 001°20'0 0.0
2017-Sep-13 09:29N 51°07' E 001°20'0 0.1
2017-Sep-13 09:00N 51°07' E 001°20'2 3.8
2017-Sep-13 08:30N 51°07' E 001°23'2 4.9
2017-Sep-13 08:00N 51°06' E 001°27'714.9
2017-Sep-13 07:30N 51°02' E 001°37'713.9
2017-Sep-13 07:00N 50°58' E 001°46'3 6.8
2017-Sep-13 06:30N 50°58' E 001°51'0 0.0
2017-Sep-13 06:00N 50°58' E 001°51'0 0.0
2017-Sep-13 05:30N 50°58' E 001°51'0 0.0
2017-Sep-13 05:00N 50°58' E 001°51'0 0.0
2017-Sep-13 04:30N 50°58' E 001°51'0 0.0
2017-Sep-13 04:00N 50°58' E 001°51'0 0.0
2017-Sep-13 03:30N 50°58' E 001°51'0 0.0
2017-Sep-13 03:01N 50°58' E 001°51'0 0.0
2017-Sep-13 02:30N 50°58' E 001°51'0 0.0
2017-Sep-13 02:00N 50°58' E 001°51'0 0.0
2017-Sep-13 01:30N 50°58' E 001°51'0 0.0
2017-Sep-13 01:00N 50°58' E 001°51'0 0.0
2017-Sep-13 00:30N 50°58' E 001°51'0 0.0
2017-Sep-13 00:00N 50°58' E 001°51'0 0.0
2017-Sep-12 23:30N 50°58' E 001°51'0 0.0
2017-Sep-12 23:00N 50°58' E 001°51'1 1.9
2017-Sep-12 22:30N 50°58' E 001°50'816.2
2017-Sep-12 22:01N 50°60' E 001°37'917.9
2017-Sep-12 21:31N 51°05' E 001°25'4 7.5
2017-Sep-12 20:58N 51°07' E 001°20'0 0.0
2017-Sep-12 20:30N 51°07' E 001°20'1 1.5
2017-Sep-12 20:01N 51°07' E 001°21'2 4.0
2017-Sep-12 19:30N 51°07' E 001°24'714.8
2017-Sep-12 19:01N 51°03' E 001°34'917.6
2017-Sep-12 18:31N 50°58' E 001°45'4 7.1
2017-Sep-12 18:00N 50°58' E 001°51'0 0.0
2017-Sep-12 17:30N 50°58' E 001°51'5 9.6
2017-Sep-12 17:00N 50°58' E 001°43'918.9
2017-Sep-12 16:30N 51°02' E 001°30'816.1
2017-Sep-12 16:00N 51°07' E 001°20'0 0.0
2017-Sep-12 15:30N 51°07' E 001°20'0 0.2
2017-Sep-12 15:00N 51°07' E 001°20'713.6
2017-Sep-12 14:30N 51°04' E 001°30'917.1
2017-Sep-12 14:00N 50°60' E 001°41'612.9
2017-Sep-12 13:30N 50°58' E 001°51'0 0.7
2017-Sep-12 13:00N 50°58' E 001°51'0 0.0
2017-Sep-12 12:30N 50°58' E 001°51'611.1
2017-Sep-12 12:00N 50°58' E 001°43'1 1.2
2017-Sep-12 11:31N 50°58' E 001°42'0 0.6
2017-Sep-12 11:01N 50°58' E 001°41'2 4.1
2017-Sep-12 10:30N 50°59' E 001°38'510.7
2017-Sep-12 10:00N 51°02' E 001°31'713.5
2017-Sep-12 09:30N 51°06' E 001°23'2 4.4
2017-Sep-12 09:00N 51°07' E 001°20'0 0.0
2017-Sep-12 08:30N 51°07' E 001°20'1 1.7
2017-Sep-12 08:00N 51°07' E 001°21'917.9
2017-Sep-12 07:30N 51°03' E 001°34'917.8
2017-Sep-12 07:01N 50°58' E 001°46'3 6.8
2017-Sep-12 06:30N 50°58' E 001°51'0 0.0
2017-Sep-12 06:00N 50°58' E 001°51'4 7.1
2017-Sep-12 05:30N 50°58' E 001°45'918.5
2017-Sep-12 05:01N 51°02' E 001°33'9 5.4
2017-Sep-12 03:17N 51°07' E 001°20'310.4
2017-Sep-12 03:01N 51°07' E 001°25'815.8
2017-Sep-12 02:31N 51°03' E 001°35'714.9
2017-Sep-12 02:01N 50°58' E 001°45'4 7.7
2017-Sep-12 01:30N 50°58' E 001°51'0 0.0
2017-Sep-12 01:00N 50°58' E 001°51'0 0.0
2017-Sep-12 00:30N 50°58' E 001°51'0 0.0
2017-Sep-12 00:00N 50°58' E 001°51'0 0.0
2017-Sep-11 23:30N 50°58' E 001°51'0 0.0
2017-Sep-11 23:00N 50°58' E 001°51'0 0.0
2017-Sep-11 22:30N 50°58' E 001°51'0 0.0
2017-Sep-11 22:00N 50°58' E 001°51'0 0.0
2017-Sep-11 21:30N 50°58' E 001°51'0 0.6
2017-Sep-11 21:00N 50°58' E 001°51'815.3
2017-Sep-11 20:30N 50°59' E 001°39'918.3
2017-Sep-11 20:00N 51°04' E 001°27'5 9.8
2017-Sep-11 19:30N 51°07' E 001°20'0 0.0
2017-Sep-11 19:00N 51°07' E 001°20'1 1.3
2017-Sep-11 18:30N 51°07' E 001°21'714.2
2017-Sep-11 18:01N 51°04' E 001°31'816.5
2017-Sep-11 17:30N 50°60' E 001°42'611.7
2017-Sep-11 17:00N 50°58' E 001°51'0 0.0
2017-Sep-11 16:30N 50°58' E 001°51'1 2.8
2017-Sep-11 16:01N 50°58' E 001°49'918.1
2017-Sep-11 15:31N 51°01' E 001°35'918.2
2017-Sep-11 15:00N 51°07' E 001°24'2 4.6
2017-Sep-11 14:30N 51°07' E 001°20'0 0.0
2017-Sep-11 14:00N 51°07' E 001°20'2 4.9
2017-Sep-11 13:30N 51°07' E 001°24'816.4
2017-Sep-11 13:00N 51°02' E 001°35'815.6
2017-Sep-11 12:31N 50°58' E 001°45'4 8.2
2017-Sep-11 12:00N 50°58' E 001°52'0 0.0
2017-Sep-11 11:30N 50°58' E 001°52'4 8.2
2017-Sep-11 11:01N 50°58' E 001°45'816.8
2017-Sep-11 10:31N 50°59' E 001°32'917.4
2017-Sep-11 10:00N 51°06' E 001°23'1 0.7
2017-Sep-11 08:13N 51°07' E 001°22'313.4
2017-Sep-11 08:00N 51°07' E 001°27'815.3
2017-Sep-11 07:30N 51°04' E 001°38'816.0
2017-Sep-11 07:00N 50°58' E 001°46'3 6.0
2017-Sep-11 06:31N 50°58' E 001°51'0 0.0
2017-Sep-11 06:01N 50°58' E 001°51'0 0.0
2017-Sep-11 05:30N 50°58' E 001°51'0 0.0
2017-Sep-11 05:01N 50°58' E 001°51'0 0.0
2017-Sep-11 04:30N 50°58' E 001°51'0 0.0
2017-Sep-11 04:01N 50°58' E 001°51'0 0.0
2017-Sep-11 03:31N 50°58' E 001°51'0 0.0
2017-Sep-11 03:01N 50°58' E 001°51'0 0.0
2017-Sep-11 02:30N 50°58' E 001°51'0 0.0
2017-Sep-11 02:00N 50°58' E 001°51'0 0.0
2017-Sep-11 01:31N 50°58' E 001°51'0 0.0
2017-Sep-11 01:00N 50°58' E 001°51'0 0.0
2017-Sep-11 00:30N 50°58' E 001°51'0 0.0
2017-Sep-11 00:00N 50°58' E 001°51'0 0.0
2017-Sep-10 23:30N 50°58' E 001°51'0 0.0
2017-Sep-10 23:00N 50°58' E 001°51'0 0.0
2017-Sep-10 22:30N 50°58' E 001°51'3 5.5
2017-Sep-10 22:00N 50°58' E 001°47'816.6
2017-Sep-10 21:30N 51°01' E 001°34'918.1
2017-Sep-10 21:01N 51°06' E 001°23'2 4.0
2017-Sep-10 20:30N 51°07' E 001°20'0 0.0
2017-Sep-10 20:00N 51°07' E 001°20'0 0.9
2017-Sep-10 19:30N 51°07' E 001°21'3 6.0
2017-Sep-10 19:00N 51°07' E 001°25'1 2.7
2017-Sep-10 18:30N 51°07' E 001°28'3 6.5
2017-Sep-10 18:01N 51°04' E 001°30'917.3
2017-Sep-10 17:30N 50°60' E 001°42'612.0
2017-Sep-10 17:01N 50°58' E 001°51'0 0.1
2017-Sep-10 16:31N 50°58' E 001°51'2 3.8
2017-Sep-10 16:01N 50°58' E 001°48'815.6
2017-Sep-10 15:30N 51°00' E 001°36'917.7
2017-Sep-10 15:00N 51°06' E 001°25'4 3.5
2017-Sep-10 14:00N 51°07' E 001°20'4 8.7
2017-Sep-10 13:31N 51°07' E 001°27'612.7
2017-Sep-10 13:00N 51°03' E 001°35'714.5
2017-Sep-10 12:30N 50°59' E 001°44'5 9.3
2017-Sep-10 12:01N 50°58' E 001°52'0 0.1
2017-Sep-10 11:30N 50°58' E 001°52'0 0.0
2017-Sep-10 11:01N 50°58' E 001°52'0 0.2
2017-Sep-10 10:31N 50°58' E 001°52'0 0.0
2017-Sep-10 10:01N 50°58' E 001°52'0 0.0
2017-Sep-10 09:31N 50°58' E 001°52'0 0.0
2017-Sep-10 09:01N 50°58' E 001°52'0 0.0
2017-Sep-10 08:31N 50°58' E 001°52'0 0.8
2017-Sep-10 08:01N 50°58' E 001°51'0 0.0
2017-Sep-10 07:30N 50°58' E 001°51'0 0.1
2017-Sep-10 07:00N 50°58' E 001°51'714.4
2017-Sep-10 06:30N 50°59' E 001°40'918.5
2017-Sep-10 06:00N 51°05' E 001°28'611.8
2017-Sep-10 05:30N 51°07' E 001°20'0 0.0
2017-Sep-10 05:00N 51°07' E 001°20'0 0.0
2017-Sep-10 04:30N 51°07' E 001°20'0 0.2
2017-Sep-10 04:01N 51°07' E 001°20'714.5
2017-Sep-10 03:30N 51°05' E 001°31'917.7
2017-Sep-10 03:00N 50°60' E 001°42'611.2
2017-Sep-10 02:30N 50°58' E 001°51'0 0.0
2017-Sep-10 02:00N 50°58' E 001°51'0 0.0
2017-Sep-10 01:30N 50°58' E 001°51'2 3.6
2017-Sep-10 01:01N 50°58' E 001°48'919.0
2017-Sep-10 00:31N 51°02' E 001°35'  
Track history (hours):
 
Tides and Currents Weather Stations Pressure Air Temp Water Temp Dewpoint Dewpoint Depression Visibility Wind Speed Wind Dir Waves Ship Positions

Pride Of Burgundy

Operator: P & O Ferries

Last reported at 2017-Sep-20 00:30 UTC. Time now 2017-Sep-20 00:35 UTC.
Position N 50°58' E 001°51'.

Length 180 m; draft 6.2 m.

Type: Passenger vessel. MMSI: 232001470.

Date/timePositionNaut miles runAvg speedWind from/ knotsBaromVisibWave heightAir tempDewpointWater temp
2017-Sep-20 00:30N 50°58' E 001°51'0 0.0
2017-Sep-20 00:01N 50°58' E 001°51'0 0.0
2017-Sep-19 23:31N 50°58' E 001°51'0 0.0
2017-Sep-19 23:01N 50°58' E 001°51'0 0.0
2017-Sep-19 22:31N 50°58' E 001°51'0 0.0
2017-Sep-19 22:01N 50°58' E 001°51'0 0.0
2017-Sep-19 21:31N 50°58' E 001°51'0 0.0
2017-Sep-19 21:00N 50°58' E 001°51'0 0.0
2017-Sep-19 20:31N 50°58' E 001°51'2 4.6
2017-Sep-19 20:01N 50°58' E 001°47'816.7
2017-Sep-19 19:31N 51°01' E 001°35'917.9
2017-Sep-19 19:01N 51°06' E 001°23'2 4.7
2017-Sep-19 18:29N 51°07' E 001°20'0 0.0
2017-Sep-19 18:00N 51°07' E 001°20'3 7.0
2017-Sep-19 17:30N 51°06' E 001°25'918.6
2017-Sep-19 17:01N 51°01' E 001°38'917.2
2017-Sep-19 16:30N 50°58' E 001°51'0 0.6
2017-Sep-19 16:01N 50°58' E 001°51'0 0.1
2017-Sep-19 15:30N 50°58' E 001°51'713.9
2017-Sep-19 15:00N 50°59' E 001°40'918.5
2017-Sep-19 14:30N 51°04' E 001°27'611.3
2017-Sep-19 14:00N 51°07' E 001°20'0 0.0
2017-Sep-19 13:30N 51°07' E 001°20'0 0.7
2017-Sep-19 13:00N 51°07' E 001°20'612.5
2017-Sep-19 12:31N 51°04' E 001°29'917.0
2017-Sep-19 12:00N 50°60' E 001°41'712.8
2017-Sep-19 11:30N 50°58' E 001°51'0 0.2
2017-Sep-19 11:00N 50°58' E 001°51'0 0.2
2017-Sep-19 10:30N 50°58' E 001°51'917.7
2017-Sep-19 10:00N 50°60' E 001°37'918.4
2017-Sep-19 09:30N 51°05' E 001°25'4 7.8
2017-Sep-19 08:59N 51°07' E 001°20'0 0.0
2017-Sep-19 08:30N 51°07' E 001°20'0 0.8
2017-Sep-19 08:00N 51°07' E 001°21'816.9
2017-Sep-19 07:31N 51°03' E 001°32'918.0
2017-Sep-19 07:01N 50°58' E 001°44'4 8.5
2017-Sep-19 06:31N 50°58' E 001°51'0 0.0
2017-Sep-19 06:00N 50°58' E 001°51'2 3.2
2017-Sep-19 05:30N 50°58' E 001°48'815.4
2017-Sep-19 05:00N 51°00' E 001°37'816.5
2017-Sep-19 04:30N 51°05' E 001°26'4 8.7
2017-Sep-19 04:00N 51°07' E 001°20'0 0.0
2017-Sep-19 03:30N 51°07' E 001°20'0 0.3
2017-Sep-19 03:00N 51°07' E 001°20'816.1
2017-Sep-19 02:30N 51°03' E 001°31'816.6
2017-Sep-19 02:00N 50°59' E 001°43'510.8
2017-Sep-19 01:30N 50°58' E 001°51'0 0.0
2017-Sep-19 01:00N 50°58' E 001°51'0 0.0
2017-Sep-19 00:30N 50°58' E 001°51'0 0.0
2017-Sep-19 00:01N 50°58' E 001°51'0 0.0
2017-Sep-18 23:30N 50°58' E 001°51'0 0.0
2017-Sep-18 23:00N 50°58' E 001°51'0 0.0
2017-Sep-18 22:30N 50°58' E 001°51'0 0.0
2017-Sep-18 22:00N 50°58' E 001°51'0 0.0
2017-Sep-18 21:30N 50°58' E 001°51'0 0.0
2017-Sep-18 21:00N 50°58' E 001°51'0 0.0
2017-Sep-18 20:31N 50°58' E 001°51'0 0.0
2017-Sep-18 20:00N 50°58' E 001°51'4 7.3
2017-Sep-18 19:30N 50°58' E 001°45'917.1
2017-Sep-18 19:00N 51°01' E 001°33'917.9
2017-Sep-18 18:30N 51°07' E 001°22'1 2.1
2017-Sep-18 18:00N 51°07' E 001°20'0 0.2
2017-Sep-18 17:30N 51°07' E 001°20'815.7
2017-Sep-18 17:01N 51°04' E 001°32'817.0
2017-Sep-18 16:31N 50°59' E 001°43'510.8
2017-Sep-18 16:00N 50°58' E 001°51'0 0.0
2017-Sep-18 15:30N 50°58' E 001°51'510.2
2017-Sep-18 15:00N 50°58' E 001°43'917.9
2017-Sep-18 14:30N 51°02' E 001°30'816.1
2017-Sep-18 14:00N 51°07' E 001°20'0 0.5
2017-Sep-18 13:30N 51°07' E 001°20'0 0.2
2017-Sep-18 13:01N 51°07' E 001°20'714.0
2017-Sep-18 12:31N 51°04' E 001°30'816.9
2017-Sep-18 12:01N 50°59' E 001°41'713.1
2017-Sep-18 11:31N 50°58' E 001°51'0 0.4
2017-Sep-18 11:00N 50°58' E 001°52'0 0.0
2017-Sep-18 10:30N 50°58' E 001°52'815.0
2017-Sep-18 10:00N 50°59' E 001°40'918.6
2017-Sep-18 09:30N 51°05' E 001°28'611.1
2017-Sep-18 09:00N 51°07' E 001°20'0 0.0
2017-Sep-18 08:30N 51°07' E 001°20'2 4.6
2017-Sep-18 08:01N 51°07' E 001°24'816.8
2017-Sep-18 07:30N 51°02' E 001°35'816.6
2017-Sep-18 07:01N 50°58' E 001°46'3 6.9
2017-Sep-18 06:30N 50°58' E 001°52'0 0.0
2017-Sep-18 06:01N 50°58' E 001°52'0 0.0
2017-Sep-18 05:31N 50°58' E 001°52'0 0.0
2017-Sep-18 05:01N 50°58' E 001°52'0 0.0
2017-Sep-18 04:30N 50°58' E 001°52'0 0.0
2017-Sep-18 04:00N 50°58' E 001°52'0 0.0
2017-Sep-18 03:30N 50°58' E 001°52'0 0.0
2017-Sep-18 03:00N 50°58' E 001°52'0 0.0
2017-Sep-18 02:30N 50°58' E 001°52'0 0.0
2017-Sep-18 02:01N 50°58' E 001°52'0 0.0
2017-Sep-18 01:30N 50°58' E 001°52'0 0.0
2017-Sep-18 01:00N 50°58' E 001°52'0 0.0
2017-Sep-18 00:30N 50°58' E 001°52'0 0.0
2017-Sep-18 00:00N 50°58' E 001°52'0 0.0
2017-Sep-17 23:30N 50°58' E 001°52'0 0.0
2017-Sep-17 23:00N 50°58' E 001°52'0 0.0
2017-Sep-17 22:30N 50°58' E 001°52'0 0.0
2017-Sep-17 22:00N 50°58' E 001°52'0 0.0
2017-Sep-17 21:30N 50°58' E 001°52'0 0.0
2017-Sep-17 21:00N 50°58' E 001°52'0 0.0
2017-Sep-17 20:30N 50°58' E 001°52'0 0.0
2017-Sep-17 20:00N 50°58' E 001°52'0 0.2
2017-Sep-17 19:30N 50°58' E 001°51'815.4
2017-Sep-17 19:01N 50°59' E 001°39'918.6
2017-Sep-17 18:31N 51°04' E 001°27'611.2
2017-Sep-17 18:00N 51°07' E 001°20'0 0.0
2017-Sep-17 17:30N 51°07' E 001°20'4 8.7
2017-Sep-17 17:01N 51°05' E 001°26'917.1
2017-Sep-17 16:31N 51°01' E 001°38'816.5
2017-Sep-17 16:00N 50°58' E 001°50'1 1.2
2017-Sep-17 15:31N 50°58' E 001°51'0 0.0
2017-Sep-17 15:01N 50°58' E 001°51'714.1
2017-Sep-17 14:31N 50°58' E 001°40'918.4
2017-Sep-17 14:01N 51°04' E 001°29'612.0
2017-Sep-17 13:29N 51°07' E 001°20'0 0.0
2017-Sep-17 12:59N 51°07' E 001°20'613.2
2017-Sep-17 12:30N 51°06' E 001°30'917.9
2017-Sep-17 12:00N 51°00' E 001°41'713.4
2017-Sep-17 11:31N 50°58' E 001°51'0 0.2
2017-Sep-17 11:01N 50°58' E 001°51'0 0.9
2017-Sep-17 10:31N 50°58' E 001°50'918.9
2017-Sep-17 10:00N 50°58' E 001°35'816.7
2017-Sep-17 09:31N 51°04' E 001°26'5 9.7
2017-Sep-17 09:00N 51°07' E 001°20'0 0.0
2017-Sep-17 08:30N 51°07' E 001°20'3 6.9
2017-Sep-17 08:00N 51°07' E 001°25'917.3
2017-Sep-17 07:30N 51°01' E 001°36'815.8
2017-Sep-17 07:01N 50°58' E 001°48'2 4.3
2017-Sep-17 06:30N 50°58' E 001°51'0 0.0
2017-Sep-17 06:01N 50°58' E 001°51'0 0.0
2017-Sep-17 05:30N 50°58' E 001°51'0 0.0
2017-Sep-17 05:00N 50°58' E 001°51'0 0.0
2017-Sep-17 04:30N 50°58' E 001°51'0 0.0
2017-Sep-17 04:00N 50°58' E 001°51'0 0.0
2017-Sep-17 03:31N 50°58' E 001°51'0 0.0
2017-Sep-17 03:00N 50°58' E 001°51'0 0.0
2017-Sep-17 02:30N 50°58' E 001°51'0 0.0
2017-Sep-17 02:01N 50°58' E 001°51'0 0.0
2017-Sep-17 01:31N 50°58' E 001°51'0 0.0
2017-Sep-17 01:00N 50°58' E 001°51'0 0.0
2017-Sep-17 00:31N 50°58' E 001°51'4 7.2
2017-Sep-17 00:00N 50°58' E 001°46'918.4
2017-Sep-16 23:30N 51°02' E 001°32'918.2
2017-Sep-16 23:00N 51°07' E 001°21'0 0.9
2017-Sep-16 22:30N 51°07' E 001°20'2 4.9
2017-Sep-16 22:01N 51°07' E 001°24'917.0
2017-Sep-16 21:30N 51°03' E 001°35'816.6
2017-Sep-16 21:00N 50°58' E 001°47'3 5.5
2017-Sep-16 20:30N 50°58' E 001°51'0 0.0
2017-Sep-16 20:00N 50°58' E 001°51'2 3.0
2017-Sep-16 19:31N 50°58' E 001°49'918.8
2017-Sep-16 19:01N 51°01' E 001°34'918.6
2017-Sep-16 18:31N 51°06' E 001°22'2 3.2
2017-Sep-16 18:00N 51°07' E 001°20'0 0.7
2017-Sep-16 17:30N 51°07' E 001°21'816.0
2017-Sep-16 17:01N 51°03' E 001°32'918.5
2017-Sep-16 16:30N 50°58' E 001°44'4 8.8
2017-Sep-16 16:00N 50°58' E 001°51'0 0.0
2017-Sep-16 15:30N 50°58' E 001°51'510.4
2017-Sep-16 15:00N 50°58' E 001°43'917.6
2017-Sep-16 14:30N 51°02' E 001°30'816.1
2017-Sep-16 14:00N 51°07' E 001°20'0 0.7
2017-Sep-16 13:30N 51°07' E 001°20'0 0.2
2017-Sep-16 13:00N 51°07' E 001°20'816.5
2017-Sep-16 12:30N 51°05' E 001°33'917.9
2017-Sep-16 12:00N 50°59' E 001°44'5 9.5
2017-Sep-16 11:30N 50°58' E 001°51'0 0.0
2017-Sep-16 11:00N 50°58' E 001°51'2 4.9
2017-Sep-16 10:30N 50°58' E 001°47'918.1
2017-Sep-16 10:00N 51°02' E 001°34'918.1
2017-Sep-16 09:30N 51°07' E 001°22'1 2.3
2017-Sep-16 09:00N 51°07' E 001°20'0 0.1
2017-Sep-16 08:30N 51°07' E 001°20'611.7
2017-Sep-16 08:00N 51°05' E 001°29'917.7
2017-Sep-16 07:30N 51°00' E 001°40'713.8
2017-Sep-16 07:01N 50°58' E 001°51'0 0.4
2017-Sep-16 06:30N 50°58' E 001°51'0 0.5
2017-Sep-16 06:00N 50°58' E 001°51'713.6
2017-Sep-16 05:30N 50°58' E 001°40'714.7
2017-Sep-16 05:00N 51°01' E 001°29'815.5
2017-Sep-16 04:31N 51°07' E 001°21'1 1.9
2017-Sep-16 04:00N 51°07' E 001°20'0 0.0
2017-Sep-16 03:31N 51°07' E 001°20'1 2.0
2017-Sep-16 03:00N 51°07' E 001°22'714.6
2017-Sep-16 02:31N 51°04' E 001°32'815.9
2017-Sep-16 02:00N 50°59' E 001°42'611.2
2017-Sep-16 01:31N 50°58' E 001°51'0 0.0
2017-Sep-16 01:00N 50°58' E 001°51'0 0.0
2017-Sep-16 00:30N 50°58' E 001°51'0 0.0
2017-Sep-16 00:01N 50°58' E 001°51'0 0.0
2017-Sep-15 23:31N 50°58' E 001°51'0 0.0
2017-Sep-15 23:01N 50°58' E 001°51'0 0.0
2017-Sep-15 22:31N 50°58' E 001°51'0 0.0
2017-Sep-15 22:00N 50°58' E 001°51'0 0.0
2017-Sep-15 21:30N 50°58' E 001°51'0 0.0
2017-Sep-15 21:01N 50°58' E 001°51'2 3.5
2017-Sep-15 20:30N 50°58' E 001°48'815.3
2017-Sep-15 20:00N 51°01' E 001°37'714.4
2017-Sep-15 19:30N 51°05' E 001°28'510.8
2017-Sep-15 19:01N 51°07' E 001°20'0 0.0
2017-Sep-15 18:30N 51°07' E 001°20'3 6.8
2017-Sep-15 18:00N 51°07' E 001°25'815.2
2017-Sep-15 17:31N 51°03' E 001°36'815.5
2017-Sep-15 17:00N 50°58' E 001°45'4 7.1
2017-Sep-15 16:30N 50°58' E 001°51'0 0.1
2017-Sep-15 16:00N 50°58' E 001°51'713.7
2017-Sep-15 15:31N 50°58' E 001°40'815.1
2017-Sep-15 15:01N 51°03' E 001°30'815.2
2017-Sep-15 14:30N 51°07' E 001°21'0 0.7
2017-Sep-15 14:00N 51°07' E 001°20'2 3.2
2017-Sep-15 13:30N 51°07' E 001°23'815.8
2017-Sep-15 13:01N 51°04' E 001°34'815.5
2017-Sep-15 12:31N 50°59' E 001°43'510.1
2017-Sep-15 12:00N 50°58' E 001°51'0 0.0
2017-Sep-15 11:30N 50°58' E 001°51'3 6.1
2017-Sep-15 11:00N 50°58' E 001°46'815.4
2017-Sep-15 10:30N 51°01' E 001°35'816.2
2017-Sep-15 10:00N 51°05' E 001°24'3 6.5
2017-Sep-15 09:30N 51°07' E 001°20'0 0.2
2017-Sep-15 08:59N 51°07' E 001°20'612.2
2017-Sep-15 08:30N 51°05' E 001°29'815.2
2017-Sep-15 08:00N 51°01' E 001°39'713.5
2017-Sep-15 07:30N 50°58' E 001°49'1 2.8
2017-Sep-15 07:00N 50°58' E 001°51'0 0.0
2017-Sep-15 06:30N 50°58' E 001°51'612.0
2017-Sep-15 06:01N 50°59' E 001°41'816.3
2017-Sep-15 05:31N 51°03' E 001°30'815.4
2017-Sep-15 05:00N 51°07' E 001°20'0 0.5
2017-Sep-15 04:30N 51°07' E 001°20'0 0.3
2017-Sep-15 04:00N 51°07' E 001°20'713.5
2017-Sep-15 03:31N 51°06' E 001°30'714.8
2017-Sep-15 03:01N 51°01' E 001°39'714.3
2017-Sep-15 02:31N 50°58' E 001°50'1 2.2
2017-Sep-15 02:00N 50°58' E 001°52'0 0.0
2017-Sep-15 01:30N 50°58' E 001°52'0 0.0
2017-Sep-15 01:00N 50°58' E 001°52'0 0.0
2017-Sep-15 00:30N 50°58' E 001°52'0 0.0
2017-Sep-15 00:00N 50°58' E 001°52'0 0.0
2017-Sep-14 23:30N 50°58' E 001°52'0 0.0
2017-Sep-14 23:00N 50°58' E 001°52'0 0.0
2017-Sep-14 22:30N 50°58' E 001°52'0 0.0
2017-Sep-14 22:00N 50°58' E 001°52'0 0.8
2017-Sep-14 21:30N 50°58' E 001°51'5 9.6
2017-Sep-14 21:00N 50°58' E 001°43'815.9
2017-Sep-14 20:30N 51°02' E 001°33'612.4
2017-Sep-14 20:01N 51°06' E 001°24'3 6.3
2017-Sep-14 19:30N 51°07' E 001°20'0 0.0
2017-Sep-14 19:00N 51°07' E 001°20'1 1.6
2017-Sep-14 18:30N 51°07' E 001°21'714.5
2017-Sep-14 18:00N 51°04' E 001°32'714.5
2017-Sep-14 17:30N 50°60' E 001°41'612.4
2017-Sep-14 17:01N 50°58' E 001°51'0 0.7
2017-Sep-14 16:31N 50°58' E 001°51'0 0.2
2017-Sep-14 16:01N 50°58' E 001°51'714.4
2017-Sep-14 15:30N 50°59' E 001°39'815.7
2017-Sep-14 15:00N 51°03' E 001°29'714.2
2017-Sep-14 14:30N 51°07' E 001°20'0 0.0
2017-Sep-14 14:00N 51°07' E 001°20'1 2.0
2017-Sep-14 13:30N 51°07' E 001°22'815.3
2017-Sep-14 13:00N 51°03' E 001°32'815.1
2017-Sep-14 12:31N 50°59' E 001°42'611.1
2017-Sep-14 12:01N 50°58' E 001°51'0 0.2
2017-Sep-14 11:30N 50°58' E 001°51'0 0.4
2017-Sep-14 11:01N 50°58' E 001°51'713.2
2017-Sep-14 10:30N 50°59' E 001°40'815.8
2017-Sep-14 10:00N 51°03' E 001°29'714.4
2017-Sep-14 09:30N 51°07' E 001°20'0 0.6
2017-Sep-14 09:00N 51°07' E 001°20'0 0.3
2017-Sep-14 08:30N 51°07' E 001°20'611.5
2017-Sep-14 08:01N 51°05' E 001°28'714.7
2017-Sep-14 07:31N 51°01' E 001°38'713.4
2017-Sep-14 07:00N 50°58' E 001°48'2 3.9
2017-Sep-14 06:30N 50°58' E 001°51'0 0.0
2017-Sep-14 06:00N 50°58' E 001°51'5 9.8
2017-Sep-14 05:30N 50°58' E 001°43'816.4
2017-Sep-14 05:00N 51°02' E 001°32'9 7.3
2017-Sep-14 03:46N 51°07' E 001°20'0 0.0
2017-Sep-14 03:30N 51°07' E 001°20'2 4.0
2017-Sep-14 03:00N 51°07' E 001°23'714.9
2017-Sep-14 02:30N 51°03' E 001°33'816.5
2017-Sep-14 02:00N 50°58' E 001°44'4 8.6
2017-Sep-14 01:30N 50°58' E 001°51'0 0.0
2017-Sep-14 01:00N 50°58' E 001°51'0 0.0
2017-Sep-14 00:30N 50°58' E 001°51'0 0.0
2017-Sep-14 00:00N 50°58' E 001°51'0 0.0
2017-Sep-13 23:31N 50°58' E 001°51'0 0.0
2017-Sep-13 23:00N 50°58' E 001°51'0 0.0
2017-Sep-13 22:30N 50°58' E 001°51'0 0.0
2017-Sep-13 22:00N 50°58' E 001°51'3 5.0
2017-Sep-13 21:31N 50°58' E 001°47'816.3
2017-Sep-13 21:00N 51°02' E 001°35'918.3
2017-Sep-13 20:31N 51°06' E 001°23'2 4.2
2017-Sep-13 20:00N 51°07' E 001°20'0 0.0
2017-Sep-13 19:30N 51°07' E 001°20'0 0.6
2017-Sep-13 19:00N 51°07' E 001°21'815.7
2017-Sep-13 18:31N 51°04' E 001°32'816.4
2017-Sep-13 18:00N 50°59' E 001°42'611.7
2017-Sep-13 17:30N 50°58' E 001°51'0 0.0
2017-Sep-13 17:01N 50°58' E 001°51'0 0.0
2017-Sep-13 16:31N 50°58' E 001°51'815.9
2017-Sep-13 16:00N 50°60' E 001°39'917.8
2017-Sep-13 15:30N 51°05' E 001°27'5 9.0
2017-Sep-13 14:57N 51°07' E 001°20'0 0.0
2017-Sep-13 14:31N 51°07' E 001°20'0 0.0
2017-Sep-13 14:00N 51°07' E 001°20'5 9.9
2017-Sep-13 13:30N 51°06' E 001°28'917.1
2017-Sep-13 13:00N 51°01' E 001°38'815.9
2017-Sep-13 12:30N 50°58' E 001°50'1 1.2
2017-Sep-13 12:00N 50°58' E 001°51'0 0.0
2017-Sep-13 11:30N 50°58' E 001°51'510.4
2017-Sep-13 11:00N 50°58' E 001°43'918.1
2017-Sep-13 10:31N 51°03' E 001°31'814.1
2017-Sep-13 09:57N 51°07' E 001°20'0 0.0
2017-Sep-13 09:29N 51°07' E 001°20'0 0.1
2017-Sep-13 09:00N 51°07' E 001°20'2 3.8
2017-Sep-13 08:30N 51°07' E 001°23'2 4.9
2017-Sep-13 08:00N 51°06' E 001°27'714.9
2017-Sep-13 07:30N 51°02' E 001°37'713.9
2017-Sep-13 07:00N 50°58' E 001°46'3 6.8
2017-Sep-13 06:30N 50°58' E 001°51'0 0.0
2017-Sep-13 06:00N 50°58' E 001°51'0 0.0
2017-Sep-13 05:30N 50°58' E 001°51'0 0.0
2017-Sep-13 05:00N 50°58' E 001°51'0 0.0
2017-Sep-13 04:30N 50°58' E 001°51'0 0.0
2017-Sep-13 04:00N 50°58' E 001°51'0 0.0
2017-Sep-13 03:30N 50°58' E 001°51'0 0.0
2017-Sep-13 03:01N 50°58' E 001°51'0 0.0
2017-Sep-13 02:30N 50°58' E 001°51'0 0.0
2017-Sep-13 02:00N 50°58' E 001°51'0 0.0
2017-Sep-13 01:30N 50°58' E 001°51'0 0.0
2017-Sep-13 01:00N 50°58' E 001°51'0 0.0
2017-Sep-13 00:30N 50°58' E 001°51'0 0.0
2017-Sep-13 00:00N 50°58' E 001°51'0 0.0
2017-Sep-12 23:30N 50°58' E 001°51'0 0.0
2017-Sep-12 23:00N 50°58' E 001°51'1 1.9
2017-Sep-12 22:30N 50°58' E 001°50'816.2
2017-Sep-12 22:01N 50°60' E 001°37'917.9
2017-Sep-12 21:31N 51°05' E 001°25'4 7.5
2017-Sep-12 20:58N 51°07' E 001°20'0 0.0
2017-Sep-12 20:30N 51°07' E 001°20'1 1.5
2017-Sep-12 20:01N 51°07' E 001°21'2 4.0
2017-Sep-12 19:30N 51°07' E 001°24'714.8
2017-Sep-12 19:01N 51°03' E 001°34'917.6
2017-Sep-12 18:31N 50°58' E 001°45'4 7.1
2017-Sep-12 18:00N 50°58' E 001°51'0 0.0
2017-Sep-12 17:30N 50°58' E 001°51'5 9.6
2017-Sep-12 17:00N 50°58' E 001°43'918.9
2017-Sep-12 16:30N 51°02' E 001°30'816.1
2017-Sep-12 16:00N 51°07' E 001°20'0 0.0
2017-Sep-12 15:30N 51°07' E 001°20'0 0.2
2017-Sep-12 15:00N 51°07' E 001°20'713.6
2017-Sep-12 14:30N 51°04' E 001°30'917.1
2017-Sep-12 14:00N 50°60' E 001°41'612.9
2017-Sep-12 13:30N 50°58' E 001°51'0 0.7
2017-Sep-12 13:00N 50°58' E 001°51'0 0.0
2017-Sep-12 12:30N 50°58' E 001°51'611.1
2017-Sep-12 12:00N 50°58' E 001°43'1 1.2
2017-Sep-12 11:31N 50°58' E 001°42'0 0.6
2017-Sep-12 11:01N 50°58' E 001°41'2 4.1
2017-Sep-12 10:30N 50°59' E 001°38'510.7
2017-Sep-12 10:00N 51°02' E 001°31'713.5
2017-Sep-12 09:30N 51°06' E 001°23'2 4.4
2017-Sep-12 09:00N 51°07' E 001°20'0 0.0
2017-Sep-12 08:30N 51°07' E 001°20'1 1.7
2017-Sep-12 08:00N 51°07' E 001°21'917.9
2017-Sep-12 07:30N 51°03' E 001°34'917.8
2017-Sep-12 07:01N 50°58' E 001°46'3 6.8
2017-Sep-12 06:30N 50°58' E 001°51'0 0.0
2017-Sep-12 06:00N 50°58' E 001°51'4 7.1
2017-Sep-12 05:30N 50°58' E 001°45'918.5
2017-Sep-12 05:01N 51°02' E 001°33'9 5.4
2017-Sep-12 03:17N 51°07' E 001°20'310.4
2017-Sep-12 03:01N 51°07' E 001°25'815.8
2017-Sep-12 02:31N 51°03' E 001°35'714.9
2017-Sep-12 02:01N 50°58' E 001°45'4 7.7
2017-Sep-12 01:30N 50°58' E 001°51'0 0.0
2017-Sep-12 01:00N 50°58' E 001°51'0 0.0
2017-Sep-12 00:30N 50°58' E 001°51'0 0.0
2017-Sep-12 00:00N 50°58' E 001°51'0 0.0
2017-Sep-11 23:30N 50°58' E 001°51'0 0.0
2017-Sep-11 23:00N 50°58' E 001°51'0 0.0
2017-Sep-11 22:30N 50°58' E 001°51'0 0.0
2017-Sep-11 22:00N 50°58' E 001°51'0 0.0
2017-Sep-11 21:30N 50°58' E 001°51'0 0.6
2017-Sep-11 21:00N 50°58' E 001°51'815.3
2017-Sep-11 20:30N 50°59' E 001°39'918.3
2017-Sep-11 20:00N 51°04' E 001°27'5 9.8
2017-Sep-11 19:30N 51°07' E 001°20'0 0.0
2017-Sep-11 19:00N 51°07' E 001°20'1 1.3
2017-Sep-11 18:30N 51°07' E 001°21'714.2
2017-Sep-11 18:01N 51°04' E 001°31'816.5
2017-Sep-11 17:30N 50°60' E 001°42'611.7
2017-Sep-11 17:00N 50°58' E 001°51'0 0.0
2017-Sep-11 16:30N 50°58' E 001°51'1 2.8
2017-Sep-11 16:01N 50°58' E 001°49'918.1
2017-Sep-11 15:31N 51°01' E 001°35'918.2
2017-Sep-11 15:00N 51°07' E 001°24'2 4.6
2017-Sep-11 14:30N 51°07' E 001°20'0 0.0
2017-Sep-11 14:00N 51°07' E 001°20'2 4.9
2017-Sep-11 13:30N 51°07' E 001°24'816.4
2017-Sep-11 13:00N 51°02' E 001°35'815.6
2017-Sep-11 12:31N 50°58' E 001°45'4 8.2
2017-Sep-11 12:00N 50°58' E 001°52'0 0.0
2017-Sep-11 11:30N 50°58' E 001°52'4 8.2
2017-Sep-11 11:01N 50°58' E 001°45'816.8
2017-Sep-11 10:31N 50°59' E 001°32'917.4
2017-Sep-11 10:00N 51°06' E 001°23'1 0.7
2017-Sep-11 08:13N 51°07' E 001°22'313.4
2017-Sep-11 08:00N 51°07' E 001°27'815.3
2017-Sep-11 07:30N 51°04' E 001°38'816.0
2017-Sep-11 07:00N 50°58' E 001°46'3 6.0
2017-Sep-11 06:31N 50°58' E 001°51'0 0.0
2017-Sep-11 06:01N 50°58' E 001°51'0 0.0
2017-Sep-11 05:30N 50°58' E 001°51'0 0.0
2017-Sep-11 05:01N 50°58' E 001°51'0 0.0
2017-Sep-11 04:30N 50°58' E 001°51'0 0.0
2017-Sep-11 04:01N 50°58' E 001°51'0 0.0
2017-Sep-11 03:31N 50°58' E 001°51'0 0.0
2017-Sep-11 03:01N 50°58' E 001°51'0 0.0
2017-Sep-11 02:30N 50°58' E 001°51'0 0.0
2017-Sep-11 02:00N 50°58' E 001°51'0 0.0
2017-Sep-11 01:31N 50°58' E 001°51'0 0.0
2017-Sep-11 01:00N 50°58' E 001°51'0 0.0
2017-Sep-11 00:30N 50°58' E 001°51'0 0.0
2017-Sep-11 00:00N 50°58' E 001°51'0 0.0
2017-Sep-10 23:30N 50°58' E 001°51'0 0.0
2017-Sep-10 23:00N 50°58' E 001°51'0 0.0
2017-Sep-10 22:30N 50°58' E 001°51'3 5.5
2017-Sep-10 22:00N 50°58' E 001°47'816.6
2017-Sep-10 21:30N 51°01' E 001°34'918.1
2017-Sep-10 21:01N 51°06' E 001°23'2 4.0
2017-Sep-10 20:30N 51°07' E 001°20'0 0.0
2017-Sep-10 20:00N 51°07' E 001°20'0 0.9
2017-Sep-10 19:30N 51°07' E 001°21'3 6.0
2017-Sep-10 19:00N 51°07' E 001°25'1 2.7
2017-Sep-10 18:30N 51°07' E 001°28'3 6.5
2017-Sep-10 18:01N 51°04' E 001°30'917.3
2017-Sep-10 17:30N 50°60' E 001°42'612.0
2017-Sep-10 17:01N 50°58' E 001°51'0 0.1
2017-Sep-10 16:31N 50°58' E 001°51'2 3.8
2017-Sep-10 16:01N 50°58' E 001°48'815.6
2017-Sep-10 15:30N 51°00' E 001°36'917.7
2017-Sep-10 15:00N 51°06' E 001°25'4 3.5
2017-Sep-10 14:00N 51°07' E 001°20'4 8.7
2017-Sep-10 13:31N 51°07' E 001°27'612.7
2017-Sep-10 13:00N 51°03' E 001°35'714.5
2017-Sep-10 12:30N 50°59' E 001°44'5 9.3
2017-Sep-10 12:01N 50°58' E 001°52'0 0.1
2017-Sep-10 11:30N 50°58' E 001°52'0 0.0
2017-Sep-10 11:01N 50°58' E 001°52'0 0.2
2017-Sep-10 10:31N 50°58' E 001°52'0 0.0
2017-Sep-10 10:01N 50°58' E 001°52'0 0.0
2017-Sep-10 09:31N 50°58' E 001°52'0 0.0
2017-Sep-10 09:01N 50°58' E 001°52'0 0.0
2017-Sep-10 08:31N 50°58' E 001°52'0 0.8
2017-Sep-10 08:01N 50°58' E 001°51'0 0.0
2017-Sep-10 07:30N 50°58' E 001°51'0 0.1
2017-Sep-10 07:00N 50°58' E 001°51'714.4
2017-Sep-10 06:30N 50°59' E 001°40'918.5
2017-Sep-10 06:00N 51°05' E 001°28'611.8
2017-Sep-10 05:30N 51°07' E 001°20'0 0.0
2017-Sep-10 05:00N 51°07' E 001°20'0 0.0
2017-Sep-10 04:30N 51°07' E 001°20'0 0.2
2017-Sep-10 04:01N 51°07' E 001°20'714.5
2017-Sep-10 03:30N 51°05' E 001°31'917.7
2017-Sep-10 03:00N 50°60' E 001°42'611.2
2017-Sep-10 02:30N 50°58' E 001°51'0 0.0
2017-Sep-10 02:00N 50°58' E 001°51'0 0.0
2017-Sep-10 01:30N 50°58' E 001°51'2 3.6
2017-Sep-10 01:01N 50°58' E 001°48'919.0
2017-Sep-10 00:31N 51°02' E 001°35'  

Dump ship's entire track history